This is the latest recevied weather packets stored in our database for station/object OM8AKX-12. If no packets are shown the sender has not sent any weather packets the latest 10 day(s).
| Time | Temp. | Humidity | Pressure | Rain* | Wind** | Luminosity | Snow |
|---|---|---|---|---|---|---|---|
| 1778185521 | 13.89° C | 100% | 1010 hPa | - | - | - | - |
| 1778184621 | 14.44° C | 100% | 1009.7 hPa | - | - | - | - |
| 1778183720 | 14.44° C | 100% | 1009.6 hPa | - | - | - | - |
| 1778182820 | 15° C | 99% | 1009.4 hPa | - | - | - | - |
| 1778181920 | 15.56° C | 96% | 1009.2 hPa | - | - | - | - |
| 1778181020 | 15.56° C | 95% | 1009.1 hPa | - | - | - | - |
| 1778180120 | 15.56° C | 94% | 1008.9 hPa | - | - | - | - |
| 1778179220 | 15.56° C | 93% | 1008.6 hPa | - | - | - | - |
| 1778178320 | 15.56° C | 92% | 1008.6 hPa | - | - | - | - |
| 1778177420 | 16.11° C | 89% | 1008.3 hPa | - | - | - | - |
| 1778176520 | 16.11° C | 86% | 1008.2 hPa | - | - | - | - |
| 1778175620 | 16.67° C | 84% | 1008.1 hPa | - | - | - | - |
| 1778174720 | 16.67° C | 83% | 1008 hPa | - | - | - | - |
| 1778173820 | 17.22° C | 82% | 1007.7 hPa | - | - | - | - |
| 1778172920 | 17.22° C | 84% | 1007.6 hPa | - | - | - | - |
| 1778172020 | 17.22° C | 84% | 1007.6 hPa | - | - | - | - |
| 1778171120 | 17.22° C | 82% | 1007.6 hPa | - | - | - | - |
| 1778170220 | 17.78° C | 78% | 1007.8 hPa | - | - | - | - |
| 1778169320 | 20° C | 63% | 1007.3 hPa | - | - | - | - |
| 1778168419 | 20.56° C | 58% | 1007.3 hPa | - | - | - | - |
| 1778167519 | 22.22° C | 60% | 1007.4 hPa | - | - | - | - |
| 1778166619 | 24.44° C | 59% | 1007.4 hPa | - | - | - | - |
| 1778165719 | 23.33° C | 63% | 1007.5 hPa | - | - | - | - |
| 1778164819 | 22.78° C | 65% | 1007.8 hPa | - | - | - | - |
| 1778163919 | 20° C | 94% | 1007.9 hPa | - | - | - | - |
* Rain since midnight (hover to see other rain measurements)
** Current wind speed in m/s (hover to see current wind gust speed)